Capt Amer — 3FCQ3 — position and weather

sailwx.info

Track history (hours):
 
Tides and Currents Weather Stations Pressure Air Temp Water Temp Dewpoint Dewpoint Depression Visibility Wind Speed Wind Dir Waves Ship Positions

Capt Amer

Last reported at 2017-Aug-16 06:59 UTC. Time now 2017-Aug-17 11:47 UTC.
Position N 36°44' E 005°09'.

Length 113 m; draft 5.1 m.

Type: Cargo ship. MMSI: 373175000.

Date/timePositionNaut miles runAvg speedWind from/ knotsBaromVisibWave heightAir tempDewpointWater temp
2017-Aug-16 06:59N 36°44' E 005°09'0 0.1
2017-Aug-16 06:26N 36°44' E 005°09'0 0.0
2017-Aug-16 05:56N 36°44' E 005°09'0 0.0
2017-Aug-16 05:26N 36°44' E 005°09'0 0.0
2017-Aug-15 16:59N 36°44' E 005°09'0 0.0
2017-Aug-15 13:56N 36°44' E 005°09'0 0.0
2017-Aug-15 13:20N 36°44' E 005°09'  
2017-Aug-12 13:08N 36°03' E 013°53'1 9.0
2017-Aug-12 12:59N 36°02' E 013°55'8 8.7
2017-Aug-12 12:02N 35°57' E 014°03'1 8.9
2017-Aug-12 11:56N 35°56' E 014°04'5 9.0
2017-Aug-12 11:25N 35°54' E 014°09'4 9.1
2017-Aug-12 11:00N 35°52' E 014°13'5 9.2
2017-Aug-12 10:30N 35°49' E 014°17'5 9.3
2017-Aug-12 10:00N 35°47' E 014°22'11 2.7
2017-Aug-12 05:59N 35°49' E 014°35'0 0.0
2017-Aug-12 05:29N 35°49' E 014°35'0 0.0
2017-Aug-12 04:59N 35°49' E 014°35'0 0.0
2017-Aug-12 04:29N 35°49' E 014°35'0 0.1
2017-Aug-12 03:53N 35°49' E 014°36'0 0.1
2017-Aug-12 03:23N 35°49' E 014°35'3 0.4
2017-Aug-11 20:37N 35°49' E 014°39'510.0
2017-Aug-11 20:08N 35°49' E 014°45'1410.0
2017-Aug-11 18:42N 35°46' E 015°02'210.0
2017-Aug-11 18:30N 35°46' E 015°05'5 9.8
2017-Aug-11 18:00N 35°45' E 015°11'5 9.7
2017-Aug-11 17:30N 35°44' E 015°17'5 9.5
2017-Aug-11 16:57N 35°43' E 015°23'4 9.7
2017-Aug-11 16:29N 35°42' E 015°28'5 9.8
2017-Aug-11 16:00N 35°40' E 015°34'7 9.7
2017-Aug-11 15:15N 35°38' E 015°42'2 9.7
2017-Aug-11 15:00N 35°37' E 015°45'14210.6
2017-Aug-11 01:36N 34°53' E 018°30'3210.9
2017-Aug-10 22:40N 34°43' E 019°07'  
Track history (hours):
 
Tides and Currents Weather Stations Pressure Air Temp Water Temp Dewpoint Dewpoint Depression Visibility Wind Speed Wind Dir Waves Ship Positions

Capt Amer

Last reported at 2017-Aug-16 06:59 UTC. Time now 2017-Aug-17 11:47 UTC.
Position N 36°44' E 005°09'.

Length 113 m; draft 5.1 m.

Type: Cargo ship. MMSI: 373175000.

Date/timePositionNaut miles runAvg speedWind from/ knotsBaromVisibWave heightAir tempDewpointWater temp
2017-Aug-16 06:59N 36°44' E 005°09'0 0.1
2017-Aug-16 06:26N 36°44' E 005°09'0 0.0
2017-Aug-16 05:56N 36°44' E 005°09'0 0.0
2017-Aug-16 05:26N 36°44' E 005°09'0 0.0
2017-Aug-15 16:59N 36°44' E 005°09'0 0.0
2017-Aug-15 13:56N 36°44' E 005°09'0 0.0
2017-Aug-15 13:20N 36°44' E 005°09'  
2017-Aug-12 13:08N 36°03' E 013°53'1 9.0
2017-Aug-12 12:59N 36°02' E 013°55'8 8.7
2017-Aug-12 12:02N 35°57' E 014°03'1 8.9
2017-Aug-12 11:56N 35°56' E 014°04'5 9.0
2017-Aug-12 11:25N 35°54' E 014°09'4 9.1
2017-Aug-12 11:00N 35°52' E 014°13'5 9.2
2017-Aug-12 10:30N 35°49' E 014°17'5 9.3
2017-Aug-12 10:00N 35°47' E 014°22'11 2.7
2017-Aug-12 05:59N 35°49' E 014°35'0 0.0
2017-Aug-12 05:29N 35°49' E 014°35'0 0.0
2017-Aug-12 04:59N 35°49' E 014°35'0 0.0
2017-Aug-12 04:29N 35°49' E 014°35'0 0.1
2017-Aug-12 03:53N 35°49' E 014°36'0 0.1
2017-Aug-12 03:23N 35°49' E 014°35'3 0.4
2017-Aug-11 20:37N 35°49' E 014°39'510.0
2017-Aug-11 20:08N 35°49' E 014°45'1410.0
2017-Aug-11 18:42N 35°46' E 015°02'210.0
2017-Aug-11 18:30N 35°46' E 015°05'5 9.8
2017-Aug-11 18:00N 35°45' E 015°11'5 9.7
2017-Aug-11 17:30N 35°44' E 015°17'5 9.5
2017-Aug-11 16:57N 35°43' E 015°23'4 9.7
2017-Aug-11 16:29N 35°42' E 015°28'5 9.8
2017-Aug-11 16:00N 35°40' E 015°34'7 9.7
2017-Aug-11 15:15N 35°38' E 015°42'2 9.7
2017-Aug-11 15:00N 35°37' E 015°45'14210.6
2017-Aug-11 01:36N 34°53' E 018°30'3210.9
2017-Aug-10 22:40N 34°43' E 019°07'  

Dump ship's entire track history